Terminal Aerodrome Forecast
Issued by NWS Quad Cities IA IL

Home | Current Version | Previous Version | Text Only | Print | Product List | Glossary On
Versions: 1 2 3 4 5 6 7 8 9 10 11 12 13 14 15 16 17 18 19 20
000
FTUS43 KDVN 252045 AAA
TAFMLI
TAF AMD
KMLI 252045Z 2521/2618 34006KT P6SM BKN040
     FM260200 VRB03KT P6SM BKN150
     FM260900 07003KT 4SM BR OVC050 PROB30 2611/2615 2SM -TSRA BR
      BKN020CB
     FM261500 12006KT 5SM BR BKN025=

USA.gov is the U.S. government's official web portal to all federal, state and local government web resources and services.